Flight Track Log - Related Links

Times and Time Zones

All times are in EDT time to prevent confusion due to time zone crossing. See the PAG115 flight status page for this flight to view local times or setup timezone preferences in your user account.

Time Position Orientation Groundspeed Altitude Reporting Facility
EDT Latitude Longitude Course Direction KTS MPH feet Rate Location/Type
Mon 03:38:25 PM 49.9000 -97.2500 327° Northwest 130 150 1,400  Level Winnipeg Center
Mon 03:39:25 PM 49.9333 -97.2833 327° Northwest 160 184 3,200 1,950 Climbing Winnipeg Center
Mon 03:40:25 PM 49.9833 -97.3000 348° North 170 196 5,300 2,000 Climbing Winnipeg Center
Mon 03:41:25 PM 50.0167 -97.3000 360° North 180 207 7,200 1,750 Climbing Winnipeg Center
Mon 03:42:25 PM 50.0667 -97.3000 360° North 190 219 8,800 1,600 Climbing Winnipeg Center
Mon 03:43:25 PM 50.1333 -97.3333 342° North 190 219 10,400 1,500 Climbing Winnipeg Center
Mon 03:44:25 PM 50.1833 -97.3333 360° North 190 219 11,800 1,300 Climbing Winnipeg Center
Mon 03:45:25 PM 50.2333 -97.3333 360° North 200 230 13,000 1,200 Climbing Winnipeg Center
Mon 03:46:25 PM 50.3000 -97.3333 360° North 200 230 14,200 1,200 Climbing Winnipeg Center
Mon 03:47:25 PM 50.3500 -97.3667 337° Northwest 200 230 15,400 1,050 Climbing Winnipeg Center
Mon 03:48:25 PM 50.4167 -97.3667 360° North 210 242 16,300 1,067 Climbing Winnipeg Center
Mon 03:50:00 PM 50.5201 -97.3755 North  Level Estimated
Mon 03:50:25 PM 50.5167 -97.3667 North 200 230 18,600  Level Winnipeg Center
Mon 03:51:25 PM 50.5833 -97.3667 360° North 200 230 19,400 700 Climbing Winnipeg Center
Mon 03:52:25 PM 50.6333 -97.3667 360° North 210 242 20,000 350 Climbing Winnipeg Center
Mon 03:53:25 PM 50.7000 -97.3833 351° North 230 265 20,100  Climbing Winnipeg Center
Mon 03:54:25 PM 50.7667 -97.3833 360° North 240 276 20,000  Descending Winnipeg Center
Mon 03:55:25 PM 50.8333 -97.3833 360° North 250 288 20,100  Climbing Winnipeg Center
Mon 03:56:25 PM 50.9167 -97.3833 360° North 250 288 20,000 -50 Descending Winnipeg Center
Mon 03:57:25 PM 50.9833 -97.3833 360° North 240 276 20,000  Level Winnipeg Center
Mon 03:58:25 PM 51.0333 -97.4167 337° Northwest 240 276 20,000  Level Winnipeg Center
Mon 03:59:25 PM 51.1167 -97.4167 360° North 240 276 20,000  Level Winnipeg Center
Mon 04:00:25 PM 51.1667 -97.4167 360° North 240 276 20,000  Level Winnipeg Center
Mon 04:01:25 PM 51.2333 -97.4167 360° North 240 276 20,000  Level Winnipeg Center
Mon 04:02:25 PM 51.3000 -97.4167 360° North 240 276 20,000  Level Winnipeg Center
Mon 04:03:25 PM 51.3667 -97.4167 360° North 240 276 20,000  Level Winnipeg Center
Mon 04:04:25 PM 51.4333 -97.4500 343° North 230 265 20,000  Level Winnipeg Center
Mon 04:05:25 PM 51.5000 -97.4500 360° North 230 265 20,000 50 Level Winnipeg Center
Mon 04:06:25 PM 51.5667 -97.4500 360° North 240 276 20,100 50 Climbing Winnipeg Center
Mon 04:07:25 PM 51.6333 -97.4500 360° North 240 276 20,100  Level Winnipeg Center
Mon 04:08:25 PM 51.7000 -97.4833 343° North 230 265 20,100 -50 Level Winnipeg Center
Mon 04:09:25 PM 51.7667 -97.4833 360° North 230 265 20,000 -50 Descending Winnipeg Center
Mon 04:10:25 PM 51.8333 -97.4833 360° North 230 265 20,000  Level Winnipeg Center
Mon 04:11:25 PM 51.9000 -97.4833 360° North 240 276 20,000  Level Winnipeg Center
Mon 04:12:25 PM 51.9667 -97.4833 360° North 230 265 20,000  Level Winnipeg Center
Mon 04:13:25 PM 52.0167 -97.4833 360° North 240 276 20,000  Level Winnipeg Center
Mon 04:14:25 PM 52.0833 -97.5167 343° North 230 265 20,000  Level Winnipeg Center
Mon 04:15:25 PM 52.1500 -97.5167 360° North 240 276 20,000  Level Winnipeg Center
Mon 04:16:25 PM 52.2167 -97.5167 360° North 230 265 20,000  Level Winnipeg Center
Mon 04:17:25 PM 52.2833 -97.5167 360° North 230 265 20,000  Level Winnipeg Center
Mon 04:18:25 PM 52.3500 -97.5333 351° North 240 276 20,000  Level Winnipeg Center
Mon 04:19:25 PM 52.4167 -97.5333 360° North 240 276 20,000  Level Winnipeg Center
Mon 04:20:25 PM 52.4833 -97.5500 351° North 250 288 20,000  Level Winnipeg Center
Mon 04:21:25 PM 52.5667 -97.5500 360° North 250 288 20,000  Level Winnipeg Center
Mon 04:22:25 PM 52.6333 -97.5500 360° North 260 299 20,000  Level Winnipeg Center
Mon 04:23:25 PM 52.7000 -97.5667 351° North 260 299 20,000  Level Winnipeg Center
Mon 04:24:25 PM 52.7667 -97.5667 360° North 260 299 20,000  Level Winnipeg Center
Mon 04:25:25 PM 52.8500 -97.5667 360° North 260 299 20,000 50 Level Winnipeg Center
Mon 04:26:25 PM 52.9167 -97.5667 360° North 260 299 20,100  Climbing Winnipeg Center
Mon 04:27:25 PM 53.0000 -97.5833 353° North 260 299 20,000  Descending Winnipeg Center
Mon 04:28:25 PM 53.0667 -97.5833 360° North 260 299 20,100 50 Climbing Winnipeg Center
Mon 04:29:25 PM 53.1333 -97.6000 351° North 260 299 20,100  Level Winnipeg Center
Mon 04:30:25 PM 53.2000 -97.6000 360° North 260 299 20,100 -50 Level Winnipeg Center
Mon 04:31:25 PM 53.2833 -97.6000 360° North 260 299 20,000 -100 Descending Winnipeg Center
Mon 04:32:25 PM 53.3667 -97.6167 353° North 260 299 19,900  Descending Winnipeg Center
Mon 04:33:25 PM 53.4333 -97.6333 352° North 260 299 20,000 50 Climbing Winnipeg Center
Mon 04:34:25 PM 53.5167 -97.6333 360° North 260 299 20,000 50 Level Winnipeg Center
Mon 04:35:25 PM 53.5833 -97.6333 360° North 260 299 20,100 -550 Climbing Winnipeg Center
Mon 04:36:25 PM 53.6667 -97.6333 360° North 270 311 18,900 -1,550 Descending Winnipeg Center
Mon 04:37:25 PM 53.7500 -97.6667 347° North 300 345 17,000 -1,650 Descending Winnipeg Center
Mon 04:38:25 PM 53.8333 -97.6667 360° North 310 357 15,600 -1,500 Descending Winnipeg Center
Mon 04:39:25 PM 53.9167 -97.6667 360° North 310 357 14,000 -1,600 Descending Winnipeg Center
Mon 04:40:25 PM 54.0000 -97.7000 347° North 300 345 12,400 -1,550 Descending Winnipeg Center
Mon 04:41:25 PM 54.0833 -97.7000 360° North 290 334 10,900 -1,450 Descending Winnipeg Center
Mon 04:42:25 PM 54.1500 -97.7000 360° North 280 322 9,500 -1,550 Descending Winnipeg Center
Mon 04:43:25 PM 54.2333 -97.7000 360° North 280 322 7,800 -1,800 Descending Winnipeg Center
Mon 04:44:25 PM 54.3167 -97.7167 353° North 290 334 5,900 -1,650 Descending Winnipeg Center
Mon 04:45:25 PM 54.3833 -97.7333 352° North 270 311 4,500 -1,400 Descending Winnipeg Center
Mon 04:47:00 PM 54.4875 -97.7342 353° North  Level FlightAware Approximate
Mon 04:54:00 PM 54.6000 -97.7500 North  Level FlightAware Approximate
Mon 04:55:00 PM 54.6100 -97.7606 North  Level Estimated
Mon 04:56:00 PM 54.6100 -97.7606 North  Level Estimated
Mon 04:57:00 PM 54.6100 -97.7606 North  Level Estimated
Mon 04:58:00 PM 54.6100 -97.7606 North  Level Estimated
Mon 04:59:00 PM 54.6100 -97.7606 North  Level Estimated
Mon 05:00:00 PM 54.6100 -97.7606 North  Level Estimated
Mon 05:01:00 PM 54.6100 -97.7606 North  Level Estimated
Mon 05:02:00 PM 54.6100 -97.7606 North  Level Estimated

Login

Don't have an account? Register now (free) for customized features, flight alerts, and more!